Time;durP1;ratioP1;P1;durP2;ratioP2;P2;SDS_P1;SDS_P2;PMS_P1;PMS_P2;Temp;Humidity;BMP_temperature;BMP_pressure;BME280_temperature;BME280_humidity;BME280_pressure;Samples;Min_cycle;Max_cycle;Signal;HPM_P1;HPM_P2
2022/01/14 00:01:53;;;;;;;31.02;12.68;;;;;;;-9.52;100.00;91885.84;5111624;28;20092;-61
2022/01/14 00:04:20;;;;;;;33.25;13.10;;;;;;;-9.33;100.00;91884.66;5111719;28;20053;-63
2022/01/14 00:06:45;;;;;;;36.05;14.73;;;;;;;-9.19;100.00;91883.94;5111494;28;20055;-62
2022/01/14 00:09:13;;;;;;;40.28;15.35;;;;;;;-9.16;100.00;91891.34;5111554;28;20506;-62
2022/01/14 00:11:45;;;;;;;29.60;12.35;;;;;;;-9.18;100.00;91890.72;5111499;28;20040;-61
2022/01/14 00:14:22;;;;;;;29.27;12.93;;;;;;;-9.03;100.00;91891.59;5111713;28;20469;-62
2022/01/14 00:16:49;;;;;;;28.00;12.82;;;;;;;-9.11;100.00;91894.22;5111280;28;20028;-62
2022/01/14 00:19:16;;;;;;;50.70;17.27;;;;;;;-9.04;100.00;91900.31;5111493;28;20032;-62
2022/01/14 00:21:43;;;;;;;41.00;16.35;;;;;;;-9.05;100.00;91888.41;5111348;28;20040;-61
2022/01/14 00:24:25;;;;;;;37.03;14.43;;;;;;;-8.96;100.00;91895.13;5111421;28;20051;-62
2022/01/14 00:32:33;;;;;;;22.15;9.05;;;;;;;-8.60;100.00;91879.91;5111655;28;20042;-65
2022/01/14 00:34:55;;;;;;;;;;;;;;;-8.57;100.00;91886.50;5112731;28;20035;-62
2022/01/14 00:37:20;;;;;;;26.75;10.93;;;;;;;-8.63;100.00;91888.00;5116177;28;19931;-61
2022/01/14 00:39:47;;;;;;;23.35;8.43;;;;;;;-8.62;100.00;91883.66;5113936;28;20024;-61
2022/01/14 00:42:14;;;;;;;21.75;9.95;;;;;;;-8.56;100.00;91886.34;5115720;28;20070;-61
2022/01/14 00:44:40;;;;;;;27.17;10.90;;;;;;;-8.56;100.00;91878.59;5115570;28;20042;-61
2022/01/14 00:47:06;;;;;;;21.38;9.35;;;;;;;-8.43;100.00;91887.56;5115480;28;20023;-61
2022/01/14 00:49:32;;;;;;;27.23;10.90;;;;;;;-8.47;100.00;91874.19;5115260;28;20039;-61
2022/01/14 00:51:57;;;;;;;29.98;13.60;;;;;;;-8.53;100.00;91872.28;5115107;28;20020;-61
2022/01/14 00:54:24;;;;;;;40.60;16.13;;;;;;;-8.53;100.00;91869.72;5115186;28;20055;-61
2022/01/14 00:59:36;;;;;;;31.52;14.15;;;;;;;-8.53;100.00;91890.34;5063242;28;20526;-61
2022/01/14 01:02:03;;;;;;;36.75;15.90;;;;;;;-8.66;100.00;91892.72;5114990;28;20051;-61
2022/01/14 01:04:36;;;;;;;42.40;16.83;;;;;;;-8.74;100.00;91890.16;5114818;28;20048;-61
2022/01/14 01:07:04;;;;;;;38.80;16.35;;;;;;;-8.79;100.00;91888.91;5115186;28;20401;-61
2022/01/14 01:09:30;;;;;;;40.55;17.52;;;;;;;-8.80;100.00;91886.50;5114895;28;20062;-61
2022/01/14 01:15:04;;;;;;;39.20;16.50;;;;;;;-8.78;100.00;91900.81;5083090;28;20039;-60
2022/01/14 01:17:30;;;;;;;34.58;14.20;;;;;;;-8.94;100.00;91892.38;5114454;28;20405;-61
2022/01/14 01:19:55;;;;;;;40.72;15.77;;;;;;;-8.96;100.00;91894.31;5114520;28;20034;-61
2022/01/14 01:22:21;;;;;;;48.78;18.05;;;;;;;-9.00;100.00;91886.09;5114510;28;20038;-60
2022/01/14 01:24:47;;;;;;;50.28;19.00;;;;;;;-9.00;100.00;91886.09;5114459;28;20038;-60
2022/01/14 01:27:14;;;;;;;47.95;20.38;;;;;;;-9.06;100.00;91897.09;5114386;28;20042;-61
2022/01/14 01:32:07;;;;;;;49.33;19.90;;;;;;;-9.12;100.00;91898.59;5114600;28;20379;-61
2022/01/14 01:34:33;;;;;;;48.22;19.23;;;;;;;-9.02;100.00;91900.94;5112806;28;20444;-61
2022/01/14 01:37:01;;;;;;;44.50;19.05;;;;;;;-9.11;100.00;91899.38;5114155;28;20505;-60
2022/01/14 01:39:29;;;;;;;52.63;19.70;;;;;;;-9.22;100.00;91882.50;5114256;28;20184;-60
2022/01/14 01:42:01;;;;;;;50.45;17.98;;;;;;;-9.23;100.00;91867.22;5114109;28;20023;-62
2022/01/14 01:44:28;;;;;;;41.85;18.58;;;;;;;-9.19;100.00;91866.72;5114213;28;20088;-61
2022/01/14 01:46:56;;;;;;;42.25;17.30;;;;;;;-9.16;100.00;91860.41;5114164;28;20024;-60
2022/01/14 01:49:25;;;;;;;37.80;16.17;;;;;;;-9.16;100.00;91860.41;5114107;28;20031;-60
2022/01/14 01:51:51;;;;;;;38.67;16.77;;;;;;;-9.16;100.00;91858.63;5113269;28;20163;-61
2022/01/14 01:54:19;;;;;;;42.17;16.23;;;;;;;-9.20;100.00;91843.69;5114093;28;20034;-61
2022/01/14 01:56:45;;;;;;;39.13;17.45;;;;;;;-9.28;100.00;91836.81;5113862;28;20024;-61
2022/01/14 01:59:11;;;;;;;42.60;18.55;;;;;;;-9.24;100.00;91824.41;5113983;28;20397;-61
2022/01/14 02:01:41;;;;;;;43.17;18.35;;;;;;;-9.19;100.00;91812.59;5113771;28;20046;-62
2022/01/14 02:04:07;;;;;;;41.38;15.60;;;;;;;-9.03;100.00;91814.28;5113840;28;20031;-61
2022/01/14 02:06:37;;;;;;;27.48;11.45;;;;;;;-8.87;100.00;91809.03;5113560;28;20055;-61
2022/01/14 02:09:03;;;;;;;22.23;9.05;;;;;;;-8.76;100.00;91812.97;5113658;28;20043;-61
2022/01/14 02:11:29;;;;;;;24.20;10.60;;;;;;;-8.76;100.00;91808.63;5113556;28;20405;-61
2022/01/14 02:13:57;;;;;;;17.02;7.25;;;;;;;-8.63;100.00;91797.75;5113639;28;20027;-61
2022/01/14 02:16:35;;;;;;;19.45;9.23;;;;;;;-8.43;100.00;91802.41;5117690;28;20413;-61
2022/01/14 02:19:24;;;;;;;25.35;9.27;;;;;;;-8.20;100.00;91791.06;5118356;28;20030;-61
2022/01/14 02:27:13;;;;;;;22.88;8.60;;;;;;;-8.30;100.00;91805.97;5113237;28;20031;-61
2022/01/14 02:29:39;;;;;;;27.90;10.50;;;;;;;-8.30;100.00;91794.84;5113140;28;20556;-60
2022/01/14 02:32:05;;;;;;;23.35;10.57;;;;;;;-8.36;100.00;91805.88;5113198;28;20121;-61
2022/01/14 02:34:30;;;;;;;28.92;10.95;;;;;;;-8.42;100.00;91799.66;5113111;28;20027;-61
2022/01/14 02:36:56;;;;;;;26.95;10.55;;;;;;;-8.57;100.00;91791.06;5113114;28;20508;-61
2022/01/14 02:39:22;;;;;;;30.00;11.00;;;;;;;-8.73;100.00;91783.47;5113191;28;20050;-61
2022/01/14 02:41:50;;;;;;;26.90;11.18;;;;;;;-8.81;100.00;91787.72;5112998;28;20497;-61
2022/01/14 02:44:23;;;;;;;24.60;10.18;;;;;;;-8.77;100.00;91790.75;5094783;28;20031;-61
2022/01/14 02:46:54;;;;;;;;;;;;;;;-8.68;100.00;91776.00;5113345;28;20031;-61
2022/01/14 02:49:21;;;;;;;20.08;8.60;;;;;;;-8.72;100.00;91779.91;5112882;28;20002;-61
2022/01/14 02:51:47;;;;;;;19.10;8.35;;;;;;;-8.84;100.00;91769.19;5112713;28;20032;-60
2022/01/14 02:54:16;;;;;;;22.38;10.23;;;;;;;-8.81;100.00;91780.00;5112919;28;20034;-61
2022/01/14 02:56:45;;;;;;;24.52;11.27;;;;;;;-8.83;100.00;91774.19;5112831;28;20486;-61
2022/01/14 02:59:14;;;;;;;25.98;10.88;;;;;;;-8.79;100.00;91772.88;5112731;28;20038;-61
2022/01/14 03:01:40;;;;;;;21.92;8.88;;;;;;;-8.69;100.00;91766.66;5112588;28;20031;-61
2022/01/14 03:06:42;;;;;;;36.00;12.60;;;;;;;-8.71;100.00;91759.09;5089358;26;20479;-64
2022/01/14 03:09:08;;;;;;;26.08;10.00;;;;;;;-8.66;100.00;91758.59;5092386;28;20087;-64
2022/01/14 03:11:45;;;;;;;36.97;14.77;;;;;;;-8.71;100.00;91766.03;5092364;28;20474;-64
2022/01/14 03:14:13;;;;;;;29.38;11.52;;;;;;;-8.81;100.00;91746.47;5092219;28;20027;-65
2022/01/14 03:16:41;;;;;;;28.10;13.48;;;;;;;-8.80;100.00;91748.06;5092164;28;20024;-64
2022/01/14 03:19:14;;;;;;;33.92;14.05;;;;;;;-8.84;100.00;91735.69;5092466;28;20413;-64
2022/01/14 03:21:41;;;;;;;34.53;14.63;;;;;;;-8.77;100.00;91736.59;5092141;28;20016;-64
2022/01/14 03:25:35;;;;;;;31.52;12.90;;;;;;;-8.72;100.00;91729.13;5092086;28;20039;-64
2022/01/14 03:27:05;;;;;;;34.38;14.10;;;;;;;-8.73;100.00;91726.72;5091831;28;20039;-64
2022/01/14 03:29:31;;;;;;;29.92;12.15;;;;;;;-8.64;100.00;91718.75;5092044;28;20032;-64
2022/01/14 03:31:57;;;;;;;26.42;12.43;;;;;;;-8.53;100.00;91717.50;5091934;28;20020;-64
2022/01/14 03:34:23;;;;;;;30.52;13.18;;;;;;;-8.42;100.00;91709.34;5091851;28;20027;-64
2022/01/14 03:36:48;;;;;;;29.58;13.30;;;;;;;-8.40;100.00;91715.13;5091847;28;20080;-64
2022/01/14 03:39:14;;;;;;;25.95;12.07;;;;;;;-8.52;100.00;91709.63;5091881;28;20078;-65
2022/01/14 03:41:39;;;;;;;24.23;11.70;;;;;;;-8.52;100.00;91713.97;5091807;28;20028;-64
2022/01/14 03:44:05;;;;;;;25.30;11.55;;;;;;;-8.47;100.00;91706.50;5091810;28;20184;-64
2022/01/14 03:46:31;;;;;;;32.42;12.60;;;;;;;-8.28;100.00;91700.78;5091587;28;20028;-64
2022/01/14 03:48:57;;;;;;;24.13;10.32;;;;;;;-8.15;100.00;91684.69;5091646;28;20035;-64
2022/01/14 03:51:27;;;;;;;36.33;15.77;;;;;;;-7.92;100.00;91685.38;5091665;28;20024;-64
2022/01/14 03:53:53;;;;;;;37.33;16.73;;;;;;;-7.96;100.00;91671.22;5091628;28;20474;-64
2022/01/14 03:56:19;;;;;;;34.80;15.15;;;;;;;-8.05;100.00;91687.78;5091434;28;20032;-64
2022/01/14 03:58:44;;;;;;;30.63;13.30;;;;;;;-8.01;100.00;91686.47;5091480;28;20539;-64
2022/01/14 04:01:11;;;;;;;23.35;8.85;;;;;;;-7.99;100.00;91689.66;5091575;28;20025;-64
2022/01/14 04:03:38;;;;;;;28.63;12.93;;;;;;;-7.91;100.00;91686.16;5092084;28;20024;-64
2022/01/14 04:06:04;;;;;;;24.67;11.88;;;;;;;-7.86;100.00;91696.78;5091395;28;20040;-64
2022/01/14 04:08:30;;;;;;;29.92;13.75;;;;;;;-7.84;100.00;91694.81;5073266;28;20059;-64
2022/01/14 04:10:57;;;;;;;26.15;12.32;;;;;;;-7.94;100.00;91683.94;5091368;28;20089;-64
2022/01/14 04:13:36;;;;;;;34.00;16.63;;;;;;;-8.10;100.00;91681.56;5091369;28;20024;-64
2022/01/14 04:16:02;;;;;;;25.60;11.93;;;;;;;-8.08;100.00;91684.75;5090959;28;20035;-64
2022/01/14 04:18:28;;;;;;;22.25;10.00;;;;;;;-8.10;100.00;91691.88;5091214;28;20017;-64
2022/01/14 04:20:53;;;;;;;23.35;10.98;;;;;;;-8.09;100.00;91693.50;5091331;28;20413;-63
2022/01/14 04:23:23;;;;;;;26.23;11.75;;;;;;;-8.07;100.00;91701.84;5091299;28;20034;-64
2022/01/14 04:25:53;;;;;;;30.58;13.02;;;;;;;-8.09;100.00;91696.88;5091082;28;20028;-64
2022/01/14 04:28:21;;;;;;;47.40;18.50;;;;;;;-8.18;100.00;91696.19;5091181;28;20028;-64
2022/01/14 04:30:47;;;;;;;56.30;21.80;;;;;;;-8.24;100.00;91690.91;5091134;28;20457;-64
2022/01/14 04:33:13;;;;;;;59.05;25.02;;;;;;;-8.31;100.00;91698.56;5091101;28;20413;-65
2022/01/14 04:35:39;;;;;;;77.93;35.47;;;;;;;-8.36;100.00;91693.19;5090955;28;20036;-65
2022/01/14 04:38:04;;;;;;;65.45;28.85;;;;;;;-8.43;100.00;91684.53;5091080;28;20035;-65
2022/01/14 04:40:31;;;;;;;62.55;27.85;;;;;;;-8.45;100.00;91691.66;5091101;28;20114;-65
2022/01/14 04:42:59;;;;;;;59.25;27.38;;;;;;;-8.52;100.00;91688.16;5091143;28;20028;-65
2022/01/14 04:48:12;;;;;;;78.00;34.53;;;;;;;-8.61;100.00;91684.06;5049372;28;20193;-65
2022/01/14 04:50:38;;;;;;;60.53;27.20;;;;;;;-8.67;100.00;91684.78;5091000;28;20078;-65
2022/01/14 04:53:10;;;;;;;43.38;20.00;;;;;;;-8.70;100.00;91687.69;5090846;28;20173;-65
2022/01/14 04:55:36;;;;;;;62.60;27.77;;;;;;;-8.63;100.00;91696.34;5090883;28;20670;-65
2022/01/14 04:58:01;;;;;;;52.97;22.98;;;;;;;-8.81;100.00;91679.44;5090963;28;20107;-65
2022/01/14 05:00:28;;;;;;;54.67;25.60;;;;;;;-8.78;100.00;91698.91;5090906;28;20028;-65
2022/01/14 05:02:55;;;;;;;64.00;27.95;;;;;;;-8.87;100.00;91699.94;5090989;28;20386;-65
2022/01/14 05:05:27;;;;;;;62.83;28.25;;;;;;;-8.92;100.00;91692.72;5090782;28;20119;-65
2022/01/14 05:07:53;;;;;;;73.28;31.25;;;;;;;-8.91;100.00;91699.50;5090969;28;20066;-65
2022/01/14 05:10:34;;;;;;;131.98;53.50;;;;;;;-8.85;100.00;91697.97;5090666;28;20457;-65
2022/01/14 05:13:01;;;;;;;73.97;33.88;;;;;;;-8.78;100.00;91704.06;5090721;28;20097;-65
2022/01/14 05:15:26;;;;;;;74.00;33.70;;;;;;;-8.84;100.00;91708.13;5090575;28;20038;-65
2022/01/14 05:17:52;;;;;;;67.28;30.23;;;;;;;-8.79;100.00;91708.41;5090716;28;20028;-65
2022/01/14 05:20:19;;;;;;;74.10;32.42;;;;;;;-8.80;100.00;91706.00;5090710;28;20110;-65
2022/01/14 05:22:46;;;;;;;70.07;30.40;;;;;;;-8.77;100.00;91710.81;5090953;28;20173;-65
2022/01/14 05:25:13;;;;;;;70.07;29.75;;;;;;;-8.75;100.00;91706.28;5090624;28;20074;-65
2022/01/14 05:27:40;;;;;;;67.65;28.35;;;;;;;-8.75;100.00;91708.88;5093175;28;20020;-65
2022/01/14 05:30:09;;;;;;;59.10;27.83;;;;;;;-8.83;100.00;91709.75;5094221;28;20034;-65
2022/01/14 05:32:35;;;;;;;66.25;26.90;;;;;;;-8.92;100.00;91708.19;5094125;28;20059;-65
2022/01/14 05:35:01;;;;;;;67.05;26.75;;;;;;;-8.94;100.00;91712.72;5094082;28;20425;-65
2022/01/14 05:37:27;;;;;;;60.28;25.00;;;;;;;-8.89;100.00;91713.00;5094026;28;20021;-65
2022/01/14 05:39:53;;;;;;;66.95;29.98;;;;;;;-8.82;100.00;91713.13;5075826;28;20042;-65
2022/01/14 05:42:19;;;;;;;68.63;30.20;;;;;;;-8.84;100.00;91704.75;5094105;28;20039;-65
2022/01/14 05:44:44;;;;;;;74.50;29.50;;;;;;;-8.74;100.00;91707.09;5075685;28;20030;-65
2022/01/14 05:47:10;;;;;;;85.82;35.78;;;;;;;-8.71;100.00;91696.41;5093921;28;20030;-65
2022/01/14 05:49:36;;;;;;;91.57;39.20;;;;;;;-8.60;100.00;91699.38;5093808;28;20044;-65
2022/01/14 05:52:02;;;;;;;92.22;39.53;;;;;;;-8.58;100.00;91684.53;5075673;28;20016;-65
2022/01/14 05:54:27;;;;;;;95.22;41.53;;;;;;;-8.55;100.00;91689.31;5075411;28;20508;-65
2022/01/14 05:56:53;;;;;;;103.45;44.70;;;;;;;-8.47;100.00;91691.03;5093670;28;20107;-65
2022/01/14 05:59:19;;;;;;;109.45;44.65;;;;;;;-8.39;100.00;91690.13;5093654;28;20039;-63
2022/01/14 06:01:45;;;;;;;95.60;42.75;;;;;;;-8.37;100.00;91680.44;5093611;28;20513;-65
2022/01/14 06:04:10;;;;;;;89.78;40.78;;;;;;;-8.39;100.00;91679.81;5093427;28;20103;-65
2022/01/14 06:06:36;;;;;;;109.18;52.63;;;;;;;-8.36;100.00;91682.88;5093341;28;20123;-65
2022/01/14 06:09:03;;;;;;;86.60;40.80;;;;;;;-8.47;100.00;91671.19;5093489;28;20035;-64
2022/01/14 06:11:29;;;;;;;94.25;43.63;;;;;;;-8.28;100.00;91671.59;5093371;28;20024;-65
2022/01/14 06:13:54;;;;;;;114.55;55.20;;;;;;;-8.27;100.00;91662.88;5093335;28;20031;-65
2022/01/14 06:16:20;;;;;;;113.50;53.70;;;;;;;-8.13;100.00;91662.06;5093512;28;20028;-65
2022/01/14 06:18:46;;;;;;;109.50;51.63;;;;;;;-8.05;100.00;91659.38;5093228;28;20102;-65
2022/01/14 06:21:13;;;;;;;70.68;31.40;;;;;;;-7.98;100.00;91665.44;5093276;28;20036;-65
2022/01/14 06:23:38;;;;;;;70.72;33.90;;;;;;;-7.81;100.00;91660.88;5093112;28;20059;-64
2022/01/14 06:26:04;;;;;;;78.30;34.85;;;;;;;-7.72;100.00;91659.00;5092923;28;20059;-64
2022/01/14 06:28:30;;;;;;;94.13;39.75;;;;;;;-7.60;100.00;91653.16;5093023;28;20089;-64
2022/01/14 06:30:56;;;;;;;108.82;41.53;;;;;;;-7.55;100.00;91648.25;5092919;28;20064;-64
2022/01/14 06:33:21;;;;;;;131.00;47.70;;;;;;;-7.49;100.00;91644.13;5092784;28;20080;-64
2022/01/14 06:35:49;;;;;;;131.85;51.63;;;;;;;-7.39;100.00;91660.13;5092691;28;20034;-64
2022/01/14 06:38:15;;;;;;;140.82;54.40;;;;;;;-7.36;100.00;91653.81;5092734;28;20031;-64
2022/01/14 06:40:41;;;;;;;158.65;62.20;;;;;;;-7.21;100.00;91661.50;5092845;28;20052;-64
2022/01/14 06:43:06;;;;;;;173.70;63.83;;;;;;;-7.02;100.00;91658.28;5092652;28;20067;-64
2022/01/14 06:45:32;;;;;;;162.40;62.75;;;;;;;-6.94;100.00;91650.41;5092798;28;20485;-65
2022/01/14 06:47:58;;;;;;;158.50;61.80;;;;;;;-6.88;100.00;91662.59;5092798;28;20374;-65
2022/01/14 06:50:24;;;;;;;168.85;62.42;;;;;;;-6.82;100.00;91672.16;5092729;28;20464;-64
2022/01/14 06:52:50;;;;;;;171.48;65.05;;;;;;;-6.74;100.00;91653.94;5092641;28;20016;-66
2022/01/14 06:55:16;;;;;;;159.15;61.15;;;;;;;-6.36;100.00;91640.66;5092551;28;20520;-65
2022/01/14 06:57:41;;;;;;;198.35;76.22;;;;;;;-5.94;100.00;91649.25;5092816;28;20024;-65
2022/01/14 07:00:13;;;;;;;238.88;99.32;;;;;;;-5.92;100.00;91647.25;5092584;28;20032;-65
2022/01/14 07:02:39;;;;;;;239.45;99.47;;;;;;;-5.65;100.00;91659.31;5092481;28;20062;-65
2022/01/14 07:05:06;;;;;;;193.05;79.97;;;;;;;-5.62;100.00;91647.75;5073986;28;20113;-66
2022/01/14 07:07:31;;;;;;;169.15;72.88;;;;;;;-5.40;100.00;91644.00;5092454;28;20451;-65
2022/01/14 07:09:57;;;;;;;116.68;53.13;;;;;;;-5.21;100.00;91645.88;5092366;28;20085;-65
2022/01/14 07:12:28;;;;;;;121.82;54.97;;;;;;;-5.16;100.00;91647.88;5092638;28;20031;-65
2022/01/14 07:14:54;;;;;;;126.55;56.30;;;;;;;-5.07;100.00;91640.69;5092392;28;20105;-65
2022/01/14 07:17:20;;;;;;;118.07;51.15;;;;;;;-5.09;100.00;91647.88;5092383;28;20081;-65
2022/01/14 07:19:48;;;;;;;94.55;42.08;;;;;;;-4.88;100.00;91658.09;5092194;28;20028;-64
2022/01/14 07:22:14;;;;;;;74.25;33.13;;;;;;;-4.37;100.00;91647.09;5092090;28;20481;-64
2022/01/14 07:24:39;;;;;;;52.72;23.95;;;;;;;-3.15;100.00;91633.28;5091957;28;20107;-66
2022/01/14 07:27:05;;;;;;;48.08;21.27;;;;;;;-1.59;100.00;91588.78;5074135;28;20024;-66
2022/01/14 07:29:31;;;;;;;44.72;22.08;;;;;;;1.08;87.55;91606.66;5073802;28;20102;-65
2022/01/14 07:31:58;;;;;;;33.75;18.90;;;;;;;2.97;72.40;91587.38;5091881;28;20028;-65
2022/01/14 07:34:24;;;;;;;48.00;26.95;;;;;;;5.00;61.49;91586.22;5091371;28;20043;-64
2022/01/14 07:36:50;;;;;;;49.15;27.35;;;;;;;7.46;58.08;91576.00;5091424;28;20461;-66
2022/01/14 07:39:15;;;;;;;73.68;42.45;;;;;;;8.87;48.39;91579.69;5091763;28;20107;-65
2022/01/14 07:41:41;;;;;;;63.70;33.83;;;;;;;10.77;43.24;91580.22;5091513;28;20478;-65
2022/01/14 07:44:07;;;;;;;272.17;156.02;;;;;;;10.09;44.84;91580.75;5091416;28;20459;-65
2022/01/14 07:46:33;;;;;;;128.52;74.47;;;;;;;9.94;44.85;91579.13;5091515;28;20498;-64
2022/01/14 07:48:58;;;;;;;44.50;25.33;;;;;;;8.86;43.81;91570.16;5091288;28;20089;-64
2022/01/14 07:51:24;;;;;;;20.67;13.30;;;;;;;7.10;47.38;91556.06;5091628;28;20020;-65
2022/01/14 07:53:49;;;;;;;23.90;14.00;;;;;;;3.65;53.57;91562.28;5091330;28;20036;-65
2022/01/14 07:56:15;;;;;;;22.85;15.35;;;;;;;3.59;57.33;91560.63;5091451;28;20111;-65
2022/01/14 07:58:41;;;;;;;22.00;12.52;;;;;;;6.02;53.09;91565.34;5091365;28;20051;-65
2022/01/14 08:01:08;;;;;;;15.45;9.23;;;;;;;5.47;55.61;91537.81;5091380;28;20180;-65
2022/01/14 08:03:35;;;;;;;35.35;19.60;;;;;;;5.27;56.44;91541.22;5091484;28;20098;-66
2022/01/14 08:06:01;;;;;;;23.50;10.90;;;;;;;5.02;58.21;91541.16;5091116;28;20074;-65
2022/01/14 08:08:28;;;;;;;10.43;6.70;;;;;;;5.34;57.83;91539.09;5090548;28;20036;-65
2022/01/14 08:10:55;;;;;;;15.57;9.52;;;;;;;5.77;57.93;91541.53;5091247;28;20043;-65
2022/01/14 08:13:20;;;;;;;12.57;7.68;;;;;;;6.43;57.10;91552.06;5091358;28;20485;-64
2022/01/14 08:15:46;;;;;;;9.93;7.10;;;;;;;7.03;55.74;91548.44;5091100;28;20116;-65
2022/01/14 08:18:11;;;;;;;11.43;7.95;;;;;;;8.02;53.37;91554.44;5090988;28;20028;-65
2022/01/14 08:20:37;;;;;;;13.35;10.10;;;;;;;8.36;52.69;91556.28;5091273;28;20035;-65
2022/01/14 08:23:02;;;;;;;14.48;9.98;;;;;;;8.45;53.13;91556.50;5091221;28;20028;-65
2022/01/14 08:25:28;;;;;;;11.35;8.73;;;;;;;9.30;50.53;91557.38;5090725;28;20036;-65
2022/01/14 08:27:54;;;;;;;10.18;6.30;;;;;;;8.01;53.43;91552.84;5073021;28;20025;-65
2022/01/14 08:30:19;;;;;;;14.20;9.88;;;;;;;8.20;52.74;91544.22;5090990;28;20130;-65
2022/01/14 08:32:45;;;;;;;18.08;10.57;;;;;;;10.54;48.89;91542.03;5091084;28;20020;-66
2022/01/14 08:35:11;;;;;;;10.02;6.50;;;;;;;10.88;48.45;91552.31;5090787;28;20398;-66
2022/01/14 08:37:38;;;;;;;13.57;9.25;;;;;;;10.38;47.94;91546.03;5091005;28;20035;-66
2022/01/14 08:40:06;;;;;;;18.67;12.85;;;;;;;12.10;45.66;91555.16;5090942;28;20031;-66
2022/01/14 08:42:32;;;;;;;22.80;11.75;;;;;;;10.47;48.10;91547.72;5091145;28;20093;-66
2022/01/14 08:44:58;;;;;;;42.42;24.60;;;;;;;11.71;46.38;91539.75;5090954;28;20036;-66
2022/01/14 08:47:27;;;;;;;31.83;17.63;;;;;;;10.50;48.19;91536.50;5090831;28;20047;-66
2022/01/14 08:49:52;;;;;;;35.40;20.67;;;;;;;9.44;50.66;91532.78;5090341;28;20030;-66
2022/01/14 08:52:18;;;;;;;29.05;16.50;;;;;;;9.55;51.05;91539.56;5090260;28;20023;-68
2022/01/14 08:54:43;;;;;;;17.38;11.40;;;;;;;9.27;51.72;91550.00;5090100;28;20404;-65
2022/01/14 08:57:09;;;;;;;17.20;10.02;;;;;;;8.39;53.91;91542.50;5090052;28;20020;-66
2022/01/14 08:59:36;;;;;;;15.20;9.50;;;;;;;8.10;54.40;91540.59;5090100;28;20467;-66
2022/01/14 09:02:02;;;;;;;7.43;5.63;;;;;;;7.31;56.15;91539.03;5067780;28;20032;-67
2022/01/14 09:04:28;;;;;;;8.13;4.90;;;;;;;7.66;55.71;91529.28;5080032;28;20028;-66
2022/01/14 09:06:53;;;;;;;9.43;5.55;;;;;;;9.38;52.82;91523.31;5094387;28;20081;-66
2022/01/14 09:09:19;;;;;;;7.90;5.50;;;;;;;8.30;53.72;91512.31;5094077;28;20060;-66
2022/01/14 09:11:44;;;;;;;7.28;5.07;;;;;;;7.56;55.98;91508.16;5093655;28;20026;-66
2022/01/14 09:14:10;;;;;;;9.30;6.03;;;;;;;9.07;53.90;91509.66;5092354;28;20478;-67
2022/01/14 09:16:36;;;;;;;7.13;5.47;;;;;;;8.80;54.08;91502.28;5093618;28;20061;-68
2022/01/14 09:19:02;;;;;;;12.18;7.38;;;;;;;9.00;53.99;91504.72;5093317;28;20064;-67
2022/01/14 09:21:28;;;;;;;9.15;6.25;;;;;;;8.79;55.17;91501.50;5093365;28;20028;-67
2022/01/14 09:24:14;;;;;;;17.00;13.68;;;;;;;7.94;55.96;91498.63;5093338;28;20023;-67
2022/01/14 09:26:40;;;;;;;8.60;6.60;;;;;;;8.01;56.57;91486.59;5092220;28;20036;-68
2022/01/14 09:29:07;;;;;;;11.95;6.68;;;;;;;8.37;56.85;91487.09;5093250;28;20513;-66
2022/01/14 09:31:35;;;;;;;10.43;7.18;;;;;;;9.27;54.64;91482.84;5093874;28;20407;-66
2022/01/14 09:34:01;;;;;;;10.25;7.13;;;;;;;9.27;53.40;91488.16;5093365;28;20028;-66
2022/01/14 09:36:26;;;;;;;8.43;5.50;;;;;;;8.93;54.94;91483.03;5093506;28;20043;-66
2022/01/14 09:38:52;;;;;;;11.40;7.28;;;;;;;9.54;53.63;91483.00;5093155;28;20493;-66
2022/01/14 09:41:18;;;;;;;6.65;5.38;;;;;;;9.57;52.70;91474.44;5093027;28;20096;-66
2022/01/14 09:43:44;;;;;;;12.45;7.80;;;;;;;9.54;53.20;91477.69;5092007;28;20020;-67
2022/01/14 09:46:11;;;;;;;15.75;9.30;;;;;;;8.78;54.41;91464.63;5092909;28;20028;-67
2022/01/14 09:48:37;;;;;;;13.07;7.72;;;;;;;8.49;55.07;91452.22;5092813;28;20016;-67
2022/01/14 09:51:03;;;;;;;10.48;6.55;;;;;;;8.65;55.66;91435.06;5090126;28;20031;-67
2022/01/14 09:53:30;;;;;;;5.47;4.63;;;;;;;8.82;55.00;91439.09;5092675;28;20028;-67
2022/01/14 09:55:57;;;;;;;6.53;5.10;;;;;;;9.02;54.50;91438.88;5092988;28;20039;-70
2022/01/14 09:58:24;;;;;;;9.38;6.93;;;;;;;10.52;51.78;91439.66;5092383;28;20028;-67
2022/01/14 10:00:50;;;;;;;8.27;5.90;;;;;;;10.48;51.08;91431.47;5092928;28;20497;-67
2022/01/14 10:03:25;;;;;;;10.68;7.63;;;;;;;9.13;53.42;91434.97;5092695;28;20109;-65
2022/01/14 10:05:55;;;;;;;7.38;5.50;;;;;;;9.10;53.47;91432.91;5092045;28;20032;-66
2022/01/14 10:08:25;;;;;;;28.63;17.83;;;;;;;9.35;53.75;91429.09;5092437;28;20062;-66
2022/01/14 10:10:58;;;;;;;42.08;23.17;;;;;;;9.25;54.15;91424.72;5092776;28;20454;-67
2022/01/14 10:13:33;;;;;;;43.42;24.52;;;;;;;9.27;53.38;91429.75;5090755;28;20032;-66
2022/01/14 10:16:00;;;;;;;9.18;6.72;;;;;;;9.41;53.49;91427.16;5089534;28;20024;-67
2022/01/14 10:18:26;;;;;;;15.45;10.00;;;;;;;8.28;55.61;91413.75;5092290;28;20028;-67
2022/01/14 10:20:51;;;;;;;7.07;5.18;;;;;;;7.69;56.24;91412.22;5092021;28;20555;-67
2022/01/14 10:23:39;;;;;;;23.27;12.68;;;;;;;8.70;55.29;91421.75;5092743;28;20028;-67
2022/01/14 10:26:04;;;;;;;11.07;6.30;;;;;;;9.66;52.74;91418.00;5083171;28;20375;-68
2022/01/14 10:28:30;;;;;;;18.20;11.23;;;;;;;9.12;53.69;91406.84;5091660;28;20034;-69
2022/01/14 10:30:56;;;;;;;8.10;5.63;;;;;;;8.38;54.28;91397.75;5092686;28;20497;-69
2022/01/14 10:33:27;;;;;;;15.38;6.88;;;;;;;9.84;52.58;91395.91;5092740;28;20413;-69
2022/01/14 10:35:53;;;;;;;14.30;10.10;;;;;;;10.02;52.01;91391.63;5074591;28;20062;-67
2022/01/14 10:38:22;;;;;;;6.95;5.18;;;;;;;9.98;51.91;91380.78;5091625;28;20560;-71
2022/01/14 10:40:50;;;;;;;42.15;22.38;;;;;;;9.54;52.98;91394.56;5091719;28;20055;-69
2022/01/14 10:43:21;;;;;;;33.15;15.63;;;;;;;11.33;49.65;91379.38;5091149;28;20020;-69
2022/01/14 10:45:49;;;;;;;15.77;9.43;;;;;;;11.43;48.54;91387.16;5092303;28;20093;-66
2022/01/14 10:48:32;;;;;;;13.48;8.25;;;;;;;10.85;49.33;91371.91;5092256;28;20107;-66
2022/01/14 10:51:17;;;;;;;17.55;12.15;;;;;;;11.87;47.79;91358.94;5091331;28;20032;-66
2022/01/14 10:53:44;;;;;;;9.35;5.90;;;;;;;9.01;53.38;91368.28;5091641;28;20051;-66
2022/01/14 10:56:17;;;;;;;9.90;7.00;;;;;;;8.78;54.47;91371.78;5091961;28;20019;-66
2022/01/14 10:58:45;;;;;;;12.15;7.57;;;;;;;9.42;53.65;91357.03;5091190;28;20482;-65
2022/01/14 11:01:22;;;;;;;7.22;5.28;;;;;;;8.83;53.00;91361.88;5092090;28;20040;-65
2022/01/14 11:03:56;;;;;;;6.35;5.20;;;;;;;8.32;55.77;91351.91;5091905;28;20039;-66
2022/01/14 11:06:25;;;;;;;22.17;15.02;;;;;;;9.13;54.60;91351.91;5091843;28;20122;-66
2022/01/14 11:09:29;;;;;;;16.15;11.18;;;;;;;10.31;51.61;91336.34;5091865;28;20020;-66
2022/01/14 11:11:55;;;;;;;8.00;6.97;;;;;;;11.62;48.66;91336.34;5010018;28;20034;-67
2022/01/14 11:14:22;;;;;;;21.92;16.60;;;;;;;10.87;49.36;91324.50;5076463;28;20501;-66
2022/01/14 11:16:47;;;;;;;19.35;13.40;;;;;;;12.20;48.27;91328.22;5091813;28;20416;-68
2022/01/14 11:19:14;;;;;;;9.35;6.97;;;;;;;14.08;43.54;91319.81;5091871;28;20562;-67
2022/01/14 11:24:26;;;;;;;28.55;15.98;;;;;;;12.82;45.98;91329.94;5090757;28;20103;-67
2022/01/14 11:26:57;;;;;;;13.50;9.13;;;;;;;12.99;44.75;91313.16;5091377;28;20035;-67
2022/01/14 11:29:24;;;;;;;15.20;9.60;;;;;;;12.39;46.99;91309.28;5090943;28;20210;-64
2022/01/14 11:31:59;;;;;;;24.88;15.60;;;;;;;14.41;43.38;91313.09;5091819;28;20038;-66
2022/01/14 11:34:35;;;;;;;13.52;9.30;;;;;;;13.86;43.18;91311.22;5091487;28;20054;-69
2022/01/14 11:37:06;;;;;;;24.25;15.55;;;;;;;14.49;42.62;91307.72;5091466;28;20083;-68
2022/01/14 11:39:35;;;;;;;18.48;11.13;;;;;;;13.93;42.80;91315.00;5091486;28;20032;-68
2022/01/14 11:42:03;;;;;;;19.42;9.38;;;;;;;14.02;42.03;91296.22;5091371;28;20077;-68
2022/01/14 11:44:55;;;;;;;22.08;12.60;;;;;;;12.60;44.73;91302.25;5090892;28;20027;-68
2022/01/14 11:47:38;;;;;;;21.27;13.07;;;;;;;12.29;46.46;91289.00;5091634;28;20031;-68